createdAt,value
2023-09-21T00:02:28.569Z,15.50
2023-09-21T00:05:17.942Z,15.50
2023-09-21T00:08:13.432Z,15.40
2023-09-21T00:11:00.867Z,15.40
2023-09-21T00:13:53.546Z,15.40
2023-09-21T00:16:42.926Z,15.40
2023-09-21T00:19:29.144Z,15.40
2023-09-21T00:22:16.810Z,15.40
2023-09-21T00:25:11.169Z,15.40
2023-09-21T00:27:57.969Z,15.50
2023-09-21T00:30:44.214Z,15.60
2023-09-21T00:33:38.361Z,15.60
2023-09-21T00:36:28.483Z,15.60
2023-09-21T00:39:15.045Z,15.40
2023-09-21T00:42:06.397Z,15.20
2023-09-21T00:45:01.973Z,15.00
2023-09-21T00:47:54.679Z,15.00
2023-09-21T00:50:46.225Z,15.00
2023-09-21T00:53:33.525Z,15.00
2023-09-21T00:56:28.729Z,15.00
2023-09-21T00:59:16.788Z,15.20
2023-09-21T01:02:05.958Z,15.20
2023-09-21T01:04:54.021Z,15.20
2023-09-21T01:07:44.509Z,15.20
2023-09-21T01:10:30.896Z,15.30
2023-09-21T01:13:21.365Z,15.40
2023-09-21T01:16:16.209Z,15.40
2023-09-21T01:19:02.993Z,15.40
2023-09-21T01:21:53.160Z,15.40
2023-09-21T01:24:42.110Z,15.40
2023-09-21T01:27:28.437Z,15.40
2023-09-21T01:30:16.202Z,15.30
2023-09-21T01:33:17.427Z,15.20
2023-09-21T01:36:06.103Z,15.20
2023-09-21T01:38:54.240Z,15.10
2023-09-21T01:41:43.376Z,15.00
2023-09-21T01:44:36.824Z,15.00
2023-09-21T01:47:30.102Z,15.00
2023-09-21T01:50:23.316Z,15.00
2023-09-21T01:53:12.642Z,15.00
2023-09-21T01:56:00.647Z,14.90
2023-09-21T01:58:48.796Z,14.90
2023-09-21T02:01:43.512Z,14.90
2023-09-21T02:04:36.790Z,14.80
2023-09-21T02:07:23.830Z,14.90
2023-09-21T02:10:12.504Z,14.80
2023-09-21T02:13:01.369Z,14.90
2023-09-21T02:15:53.471Z,14.90
2023-09-21T02:18:46.947Z,14.90
2023-09-21T02:21:41.852Z,14.80
2023-09-21T02:24:28.701Z,14.80
2023-09-21T02:27:15.580Z,14.80
2023-09-21T02:30:03.473Z,14.80
2023-09-21T02:32:55.099Z,14.80
2023-09-21T02:35:46.236Z,14.80
2023-09-21T02:38:32.751Z,14.80
2023-09-21T02:41:19.012Z,14.80
2023-09-21T02:44:07.172Z,14.70
2023-09-21T02:46:56.434Z,14.70
2023-09-21T02:49:44.124Z,14.70
2023-09-21T02:52:33.811Z,14.70
2023-09-21T02:55:22.461Z,14.70
2023-09-21T02:58:12.509Z,14.60
2023-09-21T03:00:59.658Z,14.50
2023-09-21T03:03:46.234Z,14.40
2023-09-21T03:06:34.535Z,14.40
2023-09-21T03:09:24.311Z,14.40
2023-09-21T03:12:12.589Z,14.30
2023-09-21T03:14:59.884Z,14.20
2023-09-21T03:17:49.294Z,14.10
2023-09-21T03:20:39.456Z,14.10
2023-09-21T03:23:28.422Z,14.10
2023-09-21T03:26:15.754Z,14.10
2023-09-21T03:29:05.014Z,14.10
2023-09-21T03:31:52.091Z,14.10
2023-09-21T03:34:39.080Z,14.20
2023-09-21T03:37:25.987Z,14.20
2023-09-21T03:40:19.629Z,14.20
2023-09-21T03:43:15.556Z,14.30
2023-09-21T03:46:02.271Z,14.40
2023-09-21T03:48:53.217Z,14.40
2023-09-21T03:51:40.327Z,14.50
2023-09-21T03:54:26.754Z,14.50
2023-09-21T03:57:20.092Z,14.50
2023-09-21T04:00:29.052Z,14.60
2023-09-21T04:03:18.303Z,14.60
2023-09-21T04:06:05.272Z,14.50
2023-09-21T04:08:52.436Z,14.60
2023-09-21T04:11:38.622Z,14.60
2023-09-21T04:14:26.372Z,14.50
2023-09-21T04:17:19.857Z,14.50
2023-09-21T04:20:14.532Z,14.50
2023-09-21T04:23:01.975Z,14.40
2023-09-21T04:25:48.883Z,14.30
2023-09-21T04:28:36.343Z,14.20
2023-09-21T04:31:29.384Z,14.20
2023-09-21T04:34:15.919Z,14.20
2023-09-21T04:37:03.803Z,14.10
2023-09-21T04:39:52.035Z,14.10
2023-09-21T04:42:40.317Z,14.10
2023-09-21T04:45:28.670Z,14.10
2023-09-21T04:48:17.129Z,14.10
2023-09-21T04:51:03.714Z,14.10
2023-09-21T04:53:58.028Z,14.10
2023-09-21T04:56:45.438Z,14.20
2023-09-21T04:59:32.818Z,14.20
2023-09-21T05:02:18.981Z,14.30
2023-09-21T05:05:12.591Z,14.30
2023-09-21T05:07:59.594Z,14.40
2023-09-21T05:10:46.506Z,14.50
2023-09-21T05:13:34.793Z,14.50
2023-09-21T05:16:23.084Z,14.60
2023-09-21T05:19:11.004Z,14.80
2023-09-21T05:21:58.497Z,14.90
2023-09-21T05:24:46.711Z,15.00
2023-09-21T05:27:34.893Z,15.00
2023-09-21T05:30:29.949Z,15.10
2023-09-21T05:33:19.586Z,15.20
2023-09-21T05:36:13.641Z,15.30
2023-09-21T05:39:02.764Z,15.40
2023-09-21T05:41:49.430Z,15.50
2023-09-21T05:44:37.137Z,15.60
2023-09-21T05:47:23.540Z,15.70
2023-09-21T05:50:10.369Z,16.00
2023-09-21T05:52:58.095Z,16.50
2023-09-21T05:55:45.606Z,17.50
2023-09-21T05:58:34.953Z,18.90
2023-09-21T06:01:33.199Z,20.50
2023-09-21T06:04:22.093Z,22.10
2023-09-21T06:07:08.841Z,23.30
2023-09-21T06:10:02.282Z,24.00
2023-09-21T06:12:49.202Z,24.40
2023-09-21T06:15:39.242Z,24.70
2023-09-21T06:18:32.418Z,24.60
2023-09-21T06:21:19.360Z,24.70
2023-09-21T06:24:06.449Z,25.50
2023-09-21T06:26:58.838Z,26.80
2023-09-21T06:29:46.436Z,27.70
2023-09-21T06:32:33.095Z,28.30
2023-09-21T06:35:26.294Z,29.10
2023-09-21T06:38:14.412Z,29.90
2023-09-21T06:41:03.583Z,30.70
2023-09-21T06:43:49.657Z,31.60
2023-09-21T06:46:36.414Z,32.50
2023-09-21T06:49:23.438Z,33.00
2023-09-21T06:52:10.319Z,33.30
2023-09-21T06:55:01.773Z,33.00
2023-09-21T06:57:48.546Z,32.00
2023-09-21T07:00:41.449Z,31.50
2023-09-21T07:03:28.664Z,31.00
2023-09-21T07:06:21.486Z,30.10
2023-09-21T07:09:15.380Z,29.70
2023-09-21T07:12:03.429Z,30.30
2023-09-21T07:14:56.258Z,31.60
2023-09-21T07:17:44.411Z,33.00
2023-09-21T07:20:32.407Z,34.00
2023-09-21T07:23:19.223Z,34.50
2023-09-21T07:26:06.526Z,35.20
2023-09-21T07:28:54.019Z,35.80
2023-09-21T07:31:47.673Z,36.50
2023-09-21T07:34:35.140Z,36.80
2023-09-21T07:37:22.057Z,37.00
2023-09-21T07:40:09.293Z,37.10
2023-09-21T07:42:56.188Z,36.90
2023-09-21T07:45:42.422Z,36.70
2023-09-21T07:48:29.446Z,36.40
2023-09-21T07:51:15.927Z,35.80
2023-09-21T07:53:46.088Z,35.70
2023-09-21T07:56:15.318Z,36.10
2023-09-21T07:58:46.441Z,36.80
2023-09-21T08:01:14.195Z,37.20
2023-09-21T08:03:42.275Z,37.70
2023-09-21T08:06:11.653Z,38.30
2023-09-21T08:11:10.804Z,38.70
2023-09-21T08:13:39.907Z,38.60
2023-09-21T08:16:09.717Z,38.80
2023-09-21T08:18:37.825Z,38.90
2023-09-21T08:21:06.356Z,38.90
2023-09-21T08:23:35.817Z,38.90
2023-09-21T08:26:04.468Z,39.10
2023-09-21T08:28:33.210Z,39.50
2023-09-21T08:31:01.284Z,39.90
2023-09-21T08:33:29.361Z,40.10
2023-09-21T08:35:57.178Z,39.80
2023-09-21T08:38:25.997Z,39.40
2023-09-21T08:40:54.796Z,39.10
2023-09-21T08:43:26.342Z,39.10
2023-09-21T08:45:54.101Z,39.60
2023-09-21T08:48:24.904Z,40.00
2023-09-21T08:50:56.250Z,40.70
2023-09-21T08:53:27.537Z,41.00
2023-09-21T08:55:58.447Z,40.50
2023-09-21T08:58:29.016Z,40.40
2023-09-21T09:00:58.307Z,40.60
2023-09-21T09:03:27.487Z,41.00
2023-09-21T09:05:57.289Z,41.20
2023-09-21T09:08:26.301Z,41.40
2023-09-21T09:10:55.476Z,41.90
2023-09-21T09:13:31.776Z,42.50
2023-09-21T09:16:02.722Z,42.80
2023-09-21T09:18:30.928Z,43.00
2023-09-21T09:20:58.713Z,43.20
2023-09-21T09:23:27.280Z,43.40
2023-09-21T09:25:56.417Z,43.50
2023-09-21T09:28:24.355Z,43.60
2023-09-21T09:30:53.832Z,43.80
2023-09-21T09:33:29.641Z,43.50
2023-09-21T09:35:58.250Z,43.00
2023-09-21T09:38:26.396Z,43.00
2023-09-21T09:40:54.150Z,43.00
2023-09-21T09:43:26.744Z,43.00
2023-09-21T09:45:57.909Z,43.20
2023-09-21T09:48:29.801Z,43.70
2023-09-21T09:50:59.540Z,43.70
2023-09-21T09:53:28.429Z,43.80
2023-09-21T09:55:59.795Z,43.80
2023-09-21T09:58:29.122Z,43.70
2023-09-21T10:00:58.091Z,43.60
2023-09-21T10:03:28.716Z,43.70
2023-09-21T10:05:58.216Z,43.90
2023-09-21T10:08:27.742Z,44.20
2023-09-21T10:11:03.305Z,43.90
2023-09-21T10:13:31.568Z,43.40
2023-09-21T10:16:14.590Z,42.90
2023-09-21T10:18:45.259Z,43.10
2023-09-21T10:21:33.961Z,43.70
2023-09-21T10:24:08.182Z,43.60
2023-09-21T10:26:40.102Z,44.10
2023-09-21T10:29:09.379Z,44.50
2023-09-21T10:31:43.490Z,44.30
2023-09-21T10:34:17.887Z,44.20
2023-09-21T10:36:51.076Z,44.30
2023-09-21T10:39:31.271Z,44.00
2023-09-21T10:42:05.477Z,43.50
2023-09-21T10:45:11.989Z,43.10
2023-09-21T10:47:45.744Z,42.80
2023-09-21T10:50:20.252Z,42.30
2023-09-21T10:52:53.086Z,42.20
2023-09-21T10:55:23.003Z,42.00
2023-09-21T10:57:55.005Z,41.80
2023-09-21T11:00:24.198Z,42.00
2023-09-21T11:02:52.706Z,42.00
2023-09-21T11:05:23.022Z,42.30
2023-09-21T11:07:53.157Z,42.50
2023-09-21T11:10:22.853Z,42.00
2023-09-21T11:12:50.926Z,42.00
2023-09-21T11:15:19.536Z,41.80
2023-09-21T11:17:49.150Z,41.60
2023-09-21T11:20:22.675Z,41.50
2023-09-21T11:22:52.453Z,40.80
2023-09-21T11:25:24.743Z,40.50
2023-09-21T11:27:52.894Z,40.80
2023-09-21T11:30:21.358Z,40.70
2023-09-21T11:32:52.179Z,40.40
2023-09-21T11:35:23.063Z,40.60
2023-09-21T11:37:51.913Z,40.60
2023-09-21T11:40:24.166Z,40.30
2023-09-21T11:43:02.400Z,40.10
2023-09-21T11:45:31.156Z,39.80
2023-09-21T11:48:00.847Z,39.60
2023-09-21T11:50:32.645Z,39.20
2023-09-21T11:53:03.088Z,39.30
2023-09-21T11:55:32.288Z,39.00
2023-09-21T11:58:15.194Z,38.70
2023-09-21T12:00:51.358Z,38.90
2023-09-21T12:03:26.478Z,38.80
2023-09-21T12:05:58.507Z,38.30
2023-09-21T12:08:28.079Z,37.80
2023-09-21T12:10:56.616Z,37.30
2023-09-21T12:13:25.596Z,36.90
2023-09-21T12:15:58.138Z,37.10
2023-09-21T12:18:30.763Z,37.00
2023-09-21T12:21:02.690Z,36.70
2023-09-21T12:23:33.889Z,36.10
2023-09-21T12:26:02.147Z,36.00
2023-09-21T12:28:30.821Z,36.00
2023-09-21T12:30:59.205Z,35.80
2023-09-21T12:33:42.847Z,35.50
2023-09-21T12:36:24.093Z,35.10
2023-09-21T12:38:58.487Z,34.80
2023-09-21T12:41:27.472Z,34.90
2023-09-21T12:43:55.448Z,34.90
2023-09-21T12:46:24.561Z,34.50
2023-09-21T12:48:52.717Z,34.20
2023-09-21T12:51:20.937Z,34.20
2023-09-21T12:53:48.773Z,34.20
2023-09-21T12:56:18.505Z,34.20
2023-09-21T12:58:46.329Z,34.00
2023-09-21T13:01:14.871Z,34.20
2023-09-21T13:03:43.544Z,34.40
2023-09-21T13:06:15.536Z,34.40
2023-09-21T13:08:43.753Z,34.20
2023-09-21T13:11:12.717Z,33.90
2023-09-21T13:13:41.430Z,33.80
2023-09-21T13:16:10.003Z,33.70
2023-09-21T13:18:39.594Z,33.90
2023-09-21T13:21:10.282Z,33.70
2023-09-21T13:23:39.741Z,33.30
2023-09-21T13:26:11.338Z,33.10
2023-09-21T13:28:40.286Z,32.80
2023-09-21T13:31:13.009Z,32.00
2023-09-21T13:33:41.291Z,31.60
2023-09-21T13:36:09.075Z,31.50
2023-09-21T13:38:37.204Z,31.30
2023-09-21T13:41:05.748Z,31.50
2023-09-21T13:43:35.466Z,31.70
2023-09-21T13:46:04.195Z,31.90
2023-09-21T13:48:33.962Z,31.80
2023-09-21T13:51:01.930Z,31.50
2023-09-21T13:53:30.303Z,31.30
2023-09-21T13:55:58.223Z,31.20
2023-09-21T13:58:26.137Z,30.70
2023-09-21T14:00:54.312Z,30.30
2023-09-21T14:03:23.857Z,30.00
2023-09-21T14:05:52.088Z,29.80
2023-09-21T14:08:23.829Z,29.70
2023-09-21T14:10:53.382Z,29.70
2023-09-21T14:13:22.010Z,29.70
2023-09-21T14:15:49.903Z,29.60
2023-09-21T14:18:18.752Z,29.50
2023-09-21T14:20:46.856Z,29.70
2023-09-21T14:23:16.274Z,29.90
2023-09-21T14:25:44.354Z,30.00
2023-09-21T14:28:13.331Z,29.70
2023-09-21T14:30:42.593Z,29.30
2023-09-21T14:33:12.086Z,28.90
2023-09-21T14:35:39.954Z,28.50
2023-09-21T14:38:09.756Z,28.30
2023-09-21T14:40:37.665Z,27.80
2023-09-21T14:43:07.009Z,27.50
2023-09-21T14:45:35.481Z,27.20
2023-09-21T14:48:05.943Z,27.00
2023-09-21T14:50:34.564Z,26.90
2023-09-21T14:53:02.915Z,26.80
2023-09-21T14:55:30.823Z,26.80
2023-09-21T14:57:59.338Z,26.70
2023-09-21T15:00:27.655Z,26.50
2023-09-21T15:02:56.289Z,26.40
2023-09-21T15:05:24.265Z,26.10
2023-09-21T15:08:10.772Z,26.00
2023-09-21T15:10:43.939Z,25.90
2023-09-21T15:13:14.885Z,25.80
2023-09-21T15:15:43.151Z,25.60
2023-09-21T15:18:14.769Z,25.60
2023-09-21T15:20:44.460Z,25.60
2023-09-21T15:23:13.208Z,25.60
2023-09-21T15:25:41.436Z,25.50
2023-09-21T15:28:14.107Z,25.40
2023-09-21T15:30:42.577Z,25.30
2023-09-21T15:33:27.098Z,25.20
2023-09-21T15:35:59.838Z,25.10
2023-09-21T15:38:28.217Z,25.00
2023-09-21T15:40:57.698Z,25.00
2023-09-21T15:43:27.634Z,25.00
2023-09-21T15:45:55.871Z,24.90
2023-09-21T15:48:25.616Z,24.80
2023-09-21T15:50:54.728Z,24.70
2023-09-21T15:53:24.073Z,24.70
2023-09-21T15:55:54.102Z,24.70
2023-09-21T15:58:23.536Z,24.60
2023-09-21T16:00:51.375Z,24.50
2023-09-21T16:03:20.798Z,24.50
2023-09-21T16:05:48.960Z,24.40
2023-09-21T16:08:18.716Z,24.40
2023-09-21T16:10:46.802Z,24.40
2023-09-21T16:13:15.662Z,24.20
2023-09-21T16:15:43.981Z,24.20
2023-09-21T16:18:12.785Z,24.20
2023-09-21T16:20:42.030Z,24.10
2023-09-21T16:23:11.654Z,24.00
2023-09-21T16:25:39.923Z,24.00
2023-09-21T16:28:08.685Z,24.00
2023-09-21T16:30:37.168Z,23.90
2023-09-21T16:33:06.568Z,23.90
2023-09-21T16:35:37.531Z,23.90
2023-09-21T16:38:09.761Z,23.80
2023-09-21T16:40:39.116Z,23.70
2023-09-21T16:43:07.914Z,23.60
2023-09-21T16:45:37.330Z,23.60
2023-09-21T16:48:07.285Z,23.60
2023-09-21T16:50:38.607Z,23.60
2023-09-21T16:53:06.983Z,23.50
2023-09-21T16:55:36.486Z,23.40
2023-09-21T16:58:08.625Z,23.30
2023-09-21T17:00:39.285Z,23.20
2023-09-21T17:03:09.079Z,23.10
2023-09-21T17:05:39.377Z,23.00
2023-09-21T17:08:10.755Z,22.90
2023-09-21T17:10:39.127Z,22.80
2023-09-21T17:13:10.796Z,22.70
2023-09-21T17:15:41.061Z,22.60
2023-09-21T17:18:11.482Z,22.50
2023-09-21T17:20:40.046Z,22.30
2023-09-21T17:23:08.782Z,22.20
2023-09-21T17:25:38.934Z,22.10
2023-09-21T17:28:08.970Z,22.00
2023-09-21T17:30:38.431Z,21.90
2023-09-21T17:33:08.434Z,21.70
2023-09-21T17:35:39.423Z,21.70
2023-09-21T17:38:09.458Z,21.50
2023-09-21T17:40:38.418Z,21.50
2023-09-21T17:43:10.482Z,21.40
2023-09-21T17:45:40.711Z,21.30
2023-09-21T17:48:16.868Z,21.30
2023-09-21T17:51:06.496Z,21.20
2023-09-21T17:53:37.376Z,21.10
2023-09-21T17:56:08.477Z,21.10
2023-09-21T17:58:41.962Z,21.00
2023-09-21T18:01:13.414Z,21.00
2023-09-21T18:03:45.773Z,21.00
2023-09-21T18:06:19.589Z,21.00
2023-09-21T18:08:52.071Z,20.90
2023-09-21T18:11:21.346Z,20.90
2023-09-21T18:13:51.658Z,20.80
2023-09-21T18:16:22.114Z,20.80
2023-09-21T18:18:51.460Z,20.70
2023-09-21T18:21:21.708Z,20.70
2023-09-21T18:23:54.833Z,20.60
2023-09-21T18:26:25.779Z,20.50
2023-09-21T18:28:56.751Z,20.50
2023-09-21T18:31:27.311Z,20.50
2023-09-21T18:34:03.742Z,20.40
2023-09-21T18:36:36.107Z,20.30
2023-09-21T18:39:09.596Z,20.30
2023-09-21T18:41:42.616Z,20.30
2023-09-21T18:44:15.024Z,20.10
2023-09-21T18:46:46.936Z,20.10
2023-09-21T18:49:21.099Z,20.00
2023-09-21T18:51:55.378Z,20.00
2023-09-21T18:54:29.749Z,20.00
2023-09-21T18:57:02.800Z,19.90
2023-09-21T18:59:35.864Z,19.90
2023-09-21T19:02:10.828Z,19.90
2023-09-21T19:04:44.779Z,19.90
2023-09-21T19:07:20.272Z,19.80
2023-09-21T19:09:51.229Z,19.70
2023-09-21T19:12:22.785Z,19.70
2023-09-21T19:14:55.733Z,19.70
2023-09-21T19:17:26.634Z,19.50
2023-09-21T19:20:06.733Z,19.50
2023-09-21T19:22:48.209Z,19.50
2023-09-21T19:25:17.531Z,19.50
2023-09-21T19:27:46.828Z,19.50
2023-09-21T19:30:18.235Z,19.40
2023-09-21T19:32:51.877Z,19.40
2023-09-21T19:35:22.183Z,19.40
2023-09-21T19:37:55.915Z,19.40
2023-09-21T19:40:34.183Z,19.40
2023-09-21T19:43:04.136Z,19.40
2023-09-21T19:45:34.547Z,19.40
2023-09-21T19:48:05.014Z,19.40
2023-09-21T19:50:36.633Z,19.40
2023-09-21T19:53:06.311Z,19.40
2023-09-21T19:55:35.877Z,19.30
2023-09-21T19:58:07.380Z,19.30
2023-09-21T20:00:39.550Z,19.30
2023-09-21T20:03:15.701Z,19.20
2023-09-21T20:05:46.092Z,19.20
2023-09-21T20:08:14.482Z,19.10
2023-09-21T20:10:45.020Z,19.10
2023-09-21T20:13:14.667Z,19.00
2023-09-21T20:15:44.004Z,18.90
2023-09-21T20:18:14.335Z,18.90
2023-09-21T20:20:43.763Z,18.80
2023-09-21T20:23:12.216Z,18.80
2023-09-21T20:25:40.745Z,18.70
2023-09-21T20:28:09.520Z,18.70
2023-09-21T20:30:39.346Z,18.60
2023-09-21T20:33:08.250Z,18.50
2023-09-21T20:35:37.306Z,18.40
2023-09-21T20:38:05.401Z,18.40
2023-09-21T20:40:34.607Z,18.30
2023-09-21T20:43:03.713Z,18.30
2023-09-21T20:45:32.322Z,18.20
2023-09-21T20:48:00.477Z,18.20
2023-09-21T20:50:28.717Z,18.10
2023-09-21T20:52:57.136Z,18.00
2023-09-21T20:55:25.340Z,18.00
2023-09-21T20:57:54.291Z,17.90
2023-09-21T21:00:24.068Z,17.90
2023-09-21T21:02:52.131Z,17.80
2023-09-21T21:05:21.296Z,17.80
2023-09-21T21:07:49.240Z,17.80
2023-09-21T21:10:17.849Z,17.70
2023-09-21T21:12:46.461Z,17.70
2023-09-21T21:15:16.894Z,17.60
2023-09-21T21:17:44.860Z,17.50
2023-09-21T21:20:13.710Z,17.50
2023-09-21T21:27:01.315Z,17.40
2023-09-21T21:29:29.617Z,17.20
2023-09-21T21:31:57.437Z,17.10
2023-09-21T21:34:27.098Z,17.00
2023-09-21T21:36:54.990Z,17.00
2023-09-21T21:39:23.345Z,17.00
2023-09-21T21:41:51.599Z,17.00
2023-09-21T21:44:19.782Z,17.00
2023-09-21T21:46:48.079Z,17.00
2023-09-21T21:49:16.327Z,17.00
2023-09-21T21:51:44.104Z,17.10
2023-09-21T21:54:12.372Z,17.10
2023-09-21T21:56:40.226Z,17.10
2023-09-21T21:59:08.425Z,17.10
2023-09-21T22:01:36.219Z,17.10
2023-09-21T22:04:05.606Z,17.10
2023-09-21T22:06:35.195Z,17.00
2023-09-21T22:09:05.090Z,17.00
2023-09-21T22:11:32.836Z,17.00
2023-09-21T22:14:01.250Z,16.90
2023-09-21T22:16:30.056Z,16.90
2023-09-21T22:18:58.614Z,16.80
2023-09-21T22:21:27.094Z,16.80
2023-09-21T22:23:56.153Z,16.80
2023-09-21T22:26:24.024Z,16.80
2023-09-21T22:28:52.001Z,16.80
2023-09-21T22:31:19.808Z,16.80
2023-09-21T22:33:48.396Z,16.80
2023-09-21T22:36:17.043Z,16.80
2023-09-21T22:38:47.105Z,16.80
2023-09-21T22:41:15.965Z,16.90
2023-09-21T22:43:44.891Z,16.90
2023-09-21T22:46:14.865Z,16.90
2023-09-21T22:48:49.736Z,16.90
2023-09-21T22:51:18.309Z,16.90
2023-09-21T22:53:50.076Z,16.80
2023-09-21T22:56:18.437Z,16.80
2023-09-21T22:58:46.878Z,16.70
2023-09-21T23:01:18.012Z,16.70
2023-09-21T23:03:47.296Z,16.70
2023-09-21T23:06:17.596Z,16.70
2023-09-21T23:08:46.515Z,16.70
2023-09-21T23:11:14.467Z,16.80
2023-09-21T23:13:44.755Z,16.80
2023-09-21T23:16:12.761Z,16.90
2023-09-21T23:18:41.219Z,17.00
2023-09-21T23:21:10.444Z,17.10
2023-09-21T23:23:40.802Z,17.20
2023-09-21T23:26:08.785Z,17.30
2023-09-21T23:28:38.166Z,17.40
2023-09-21T23:31:11.965Z,17.40
2023-09-21T23:33:41.423Z,17.50
2023-09-21T23:36:09.955Z,17.50
2023-09-21T23:38:46.371Z,17.50
2023-09-21T23:41:15.005Z,17.50
2023-09-21T23:43:43.352Z,17.50
2023-09-21T23:46:12.086Z,17.50
2023-09-21T23:48:41.640Z,17.40
2023-09-21T23:51:13.077Z,17.40
2023-09-21T23:53:41.578Z,17.30
2023-09-21T23:56:09.466Z,17.30
2023-09-21T23:58:37.478Z,17.20
